David J. Cooper — WDF9940 — position and weather

sailwx.info

Track history (hours):
 
Tides and Currents Weather Stations Pressure Air Temp Water Temp Dewpoint Dewpoint Depression Visibility Wind Speed Wind Dir Waves Ship Positions

David J. Cooper

Owner: CRESCENT TOWING & SALVAGE CO INC ATTN Jeff Guilott, Elmwood, LA. More information available from US FCC via Universal Licensing System and Coast Guard Vessel Documentation Center.

Last reported at 2014-Oct-15 08:33 UTC. Time now 2014-Oct-24 12:09 UTC.
Position N 29°59' W 090°24'.
Warning: this ship's position is 9 days out of date.

Length 29 m; draft 7 m.

Type: Tug. MMSI: 367510430.

Date/timePositionNaut miles runAvg speedWind from/ knotsBaromVisibWave heightAir tempDewpointWater temp
2014-Oct-15 08:33N 29°59' W 090°24'9 0.3
2014-Oct-13 19:33N 30°03' W 090°34'1 1.0
2014-Oct-13 18:33N 30°03' W 090°33'1 1.0
2014-Oct-13 17:24N 30°03' W 090°31'2 1.1
2014-Oct-13 15:33N 30°03' W 090°34'4 1.4
2014-Oct-13 12:33N 30°03' W 090°29'1010.1
2014-Oct-13 11:33N 30°03' W 090°40'8 0.6
2014-Oct-12 22:28N 29°59' W 090°49'8 8.2
2014-Oct-12 21:33N 30°03' W 090°41'6 1.4
2014-Oct-12 17:30N 30°03' W 090°34'0 0.5
2014-Oct-12 16:33N 30°03' W 090°35'0 0.0
2014-Oct-12 15:33N 30°03' W 090°35'0 0.0
2014-Oct-12 14:33N 30°03' W 090°35'14 0.9
2014-Oct-11 23:33N 29°56' W 090°21'1 0.7
2014-Oct-11 22:26N 29°56' W 090°21'0 0.3
2014-Oct-11 21:30N 29°56' W 090°22'0 0.0
2014-Oct-11 19:08N 29°56' W 090°22'3 5.1
2014-Oct-11 18:28N 29°59' W 090°24'2 2.4
2014-Oct-11 17:30N 29°57' W 090°23'4 0.4
2014-Oct-11 07:31N 29°57' W 090°19'1 0.3
2014-Oct-11 03:20N 29°56' W 090°20'  
2014-Oct-05 10:28N 29°56' W 090°20'0 0.0
2014-Oct-05 09:28N 29°56' W 090°20'  
Track history (hours):
 
Tides and Currents Weather Stations Pressure Air Temp Water Temp Dewpoint Dewpoint Depression Visibility Wind Speed Wind Dir Waves Ship Positions

David J. Cooper

Owner: CRESCENT TOWING & SALVAGE CO INC ATTN Jeff Guilott, Elmwood, LA. More information available from US FCC via Universal Licensing System and Coast Guard Vessel Documentation Center.

Last reported at 2014-Oct-15 08:33 UTC. Time now 2014-Oct-24 12:09 UTC.
Position N 29°59' W 090°24'.
Warning: this ship's position is 9 days out of date.

Length 29 m; draft 7 m.

Type: Tug. MMSI: 367510430.

Date/timePositionNaut miles runAvg speedWind from/ knotsBaromVisibWave heightAir tempDewpointWater temp
2014-Oct-15 08:33N 29°59' W 090°24'9 0.3
2014-Oct-13 19:33N 30°03' W 090°34'1 1.0
2014-Oct-13 18:33N 30°03' W 090°33'1 1.0
2014-Oct-13 17:24N 30°03' W 090°31'2 1.1
2014-Oct-13 15:33N 30°03' W 090°34'4 1.4
2014-Oct-13 12:33N 30°03' W 090°29'1010.1
2014-Oct-13 11:33N 30°03' W 090°40'8 0.6
2014-Oct-12 22:28N 29°59' W 090°49'8 8.2
2014-Oct-12 21:33N 30°03' W 090°41'6 1.4
2014-Oct-12 17:30N 30°03' W 090°34'0 0.5
2014-Oct-12 16:33N 30°03' W 090°35'0 0.0
2014-Oct-12 15:33N 30°03' W 090°35'0 0.0
2014-Oct-12 14:33N 30°03' W 090°35'14 0.9
2014-Oct-11 23:33N 29°56' W 090°21'1 0.7
2014-Oct-11 22:26N 29°56' W 090°21'0 0.3
2014-Oct-11 21:30N 29°56' W 090°22'0 0.0
2014-Oct-11 19:08N 29°56' W 090°22'3 5.1
2014-Oct-11 18:28N 29°59' W 090°24'2 2.4
2014-Oct-11 17:30N 29°57' W 090°23'4 0.4
2014-Oct-11 07:31N 29°57' W 090°19'1 0.3
2014-Oct-11 03:20N 29°56' W 090°20'  
2014-Oct-05 10:28N 29°56' W 090°20'0 0.0
2014-Oct-05 09:28N 29°56' W 090°20'  

Dump ship's entire track history